createdAt,value
2018-04-19T00:01:39.473Z,69.30
2018-04-19T00:04:07.716Z,69.90
2018-04-19T00:06:35.959Z,70.00
2018-04-19T00:09:04.400Z,69.40
2018-04-19T00:11:32.596Z,69.60
2018-04-19T00:14:00.882Z,69.20
2018-04-19T00:16:29.124Z,70.30
2018-04-19T00:18:57.366Z,69.60
2018-04-19T00:21:25.557Z,68.20
2018-04-19T00:23:53.850Z,69.50
2018-04-19T00:26:21.853Z,69.50
2018-04-19T00:28:50.138Z,68.30
2018-04-19T00:31:18.577Z,70.60
2018-04-19T00:33:46.588Z,69.70
2018-04-19T00:36:14.868Z,69.20
2018-04-19T00:38:43.110Z,69.10
2018-04-19T00:41:11.250Z,69.60
2018-04-19T00:43:39.400Z,70.70
2018-04-19T00:46:07.631Z,72.10
2018-04-19T00:48:35.685Z,69.80
2018-04-19T00:51:03.927Z,68.00
2018-04-19T00:53:32.174Z,69.00
2018-04-19T00:56:00.412Z,69.30
2018-04-19T00:58:28.655Z,68.90
2018-04-19T01:00:56.901Z,69.70
2018-04-19T01:03:25.140Z,69.30
2018-04-19T01:05:53.142Z,70.20
2018-04-19T01:08:21.314Z,70.00
2018-04-19T01:10:49.479Z,70.20
2018-04-19T01:13:18.595Z,70.60
2018-04-19T01:15:46.747Z,70.60
2018-04-19T01:18:14.978Z,71.30
2018-04-19T01:20:43.239Z,71.10
2018-04-19T01:23:11.471Z,71.00
2018-04-19T01:25:39.590Z,70.80
2018-04-19T01:28:07.748Z,70.90
2018-04-19T01:30:36.003Z,71.90
2018-04-19T01:33:04.597Z,72.10
2018-04-19T01:35:44.284Z,71.70
2018-04-19T01:38:12.330Z,73.60
2018-04-19T01:40:40.572Z,72.80
2018-04-19T01:43:08.814Z,73.10
2018-04-19T01:45:36.864Z,72.70
2018-04-19T01:48:05.103Z,73.80
2018-04-19T01:50:33.280Z,73.40
2018-04-19T01:53:02.122Z,75.60
2018-04-19T01:55:30.187Z,75.50
2018-04-19T01:57:58.404Z,73.10
2018-04-19T02:00:27.252Z,68.00
2018-04-19T02:02:55.489Z,67.90
2018-04-19T02:05:24.175Z,68.10
2018-04-19T02:07:52.375Z,65.50
2018-04-19T02:10:20.668Z,69.80
2018-04-19T02:12:48.902Z,65.00
2018-04-19T02:15:17.099Z,63.10
2018-04-19T02:17:45.341Z,61.40
2018-04-19T02:20:13.629Z,60.30
2018-04-19T02:22:41.871Z,57.50
2018-04-19T02:25:10.122Z,55.30
2018-04-19T02:27:38.357Z,53.90
2018-04-19T02:30:07.396Z,51.80
2018-04-19T02:32:35.630Z,51.80
2018-04-19T02:35:03.762Z,51.80
2018-04-19T02:37:32.505Z,51.20
2018-04-19T02:40:00.751Z,51.50
2018-04-19T02:42:28.937Z,50.80
2018-04-19T02:44:57.233Z,51.10
2018-04-19T02:47:25.479Z,50.70
2018-04-19T02:49:53.524Z,50.30
2018-04-19T02:52:21.765Z,51.30
2018-04-19T02:54:50.006Z,52.20
2018-04-19T02:57:18.141Z,52.80
2018-04-19T02:59:46.491Z,54.80
2018-04-19T03:02:14.385Z,53.40
2018-04-19T03:04:42.582Z,52.70
2018-04-19T03:07:11.611Z,52.90
2018-04-19T03:09:39.636Z,52.90
2018-04-19T03:12:07.844Z,53.70
2018-04-19T03:14:36.085Z,53.70
2018-04-19T03:17:04.581Z,54.90
2018-04-19T03:19:32.637Z,53.70
2018-04-19T03:22:00.737Z,53.70
2018-04-19T03:24:28.684Z,53.70
2018-04-19T03:26:56.858Z,53.50
2018-04-19T03:29:25.239Z,54.10
2018-04-19T03:31:53.456Z,54.20
2018-04-19T03:34:21.573Z,54.30
2018-04-19T03:36:49.634Z,55.20
2018-04-19T03:43:52.412Z,54.80
2018-04-19T03:46:20.441Z,54.10
2018-04-19T03:48:48.659Z,55.30
2018-04-19T03:51:17.426Z,54.60
2018-04-19T03:53:45.606Z,54.60
2018-04-19T03:56:13.855Z,54.70
2018-04-19T03:58:41.970Z,54.70
2018-04-19T04:01:10.151Z,55.30
2018-04-19T04:03:38.324Z,56.20
2018-04-19T04:06:06.621Z,55.30
2018-04-19T04:08:34.866Z,55.40
2018-04-19T04:11:02.874Z,54.80
2018-04-19T04:13:31.110Z,54.70
2018-04-19T04:15:59.160Z,54.60
2018-04-19T04:18:39.435Z,54.70
2018-04-19T04:21:18.491Z,54.70
2018-04-19T04:23:52.786Z,54.60
2018-04-19T04:26:20.960Z,54.90
2018-04-19T04:28:48.918Z,54.90
2018-04-19T04:31:17.181Z,55.20
2018-04-19T04:33:45.367Z,55.40
2018-04-19T04:36:13.402Z,55.80
2018-04-19T04:38:41.504Z,56.40
2018-04-19T04:41:09.736Z,56.60
2018-04-19T04:43:37.982Z,58.70
2018-04-19T04:46:06.421Z,59.20
2018-04-19T04:48:34.414Z,61.10
2018-04-19T04:51:02.731Z,59.30
2018-04-19T04:53:30.900Z,60.30
2018-04-19T04:55:58.961Z,61.40
2018-04-19T04:58:27.237Z,66.20
2018-04-19T05:00:55.423Z,66.40
2018-04-19T05:03:23.484Z,66.30
2018-04-19T05:05:51.657Z,68.30
2018-04-19T05:08:19.613Z,71.20
2018-04-19T05:10:47.842Z,72.80
2018-04-19T05:13:16.103Z,71.30
2018-04-19T05:15:44.345Z,71.90
2018-04-19T05:18:12.347Z,72.00
2018-04-19T05:20:40.634Z,74.60
2018-04-19T05:23:08.875Z,74.90
2018-04-19T05:25:37.117Z,73.70
2018-04-19T05:28:05.315Z,73.00
2018-04-19T05:30:33.355Z,73.40
2018-04-19T05:33:01.649Z,70.10
2018-04-19T05:35:29.891Z,71.30
2018-04-19T05:37:58.134Z,74.90
2018-04-19T05:40:26.324Z,74.70
2018-04-19T05:42:54.618Z,75.00
2018-04-19T05:45:22.863Z,77.30
2018-04-19T05:47:51.102Z,77.70
2018-04-19T05:50:19.868Z,76.60
2018-04-19T05:52:48.767Z,74.10
2018-04-19T05:55:16.776Z,74.10
2018-04-19T05:57:44.951Z,74.80
2018-04-19T06:00:12.960Z,74.20
2018-04-19T06:02:41.147Z,71.60
2018-04-19T06:05:09.271Z,66.90
2018-04-19T06:07:37.391Z,64.50
2018-04-19T06:10:05.630Z,63.20
2018-04-19T06:12:33.527Z,62.90
2018-04-19T06:15:01.666Z,63.00
2018-04-19T06:17:29.779Z,63.40
2018-04-19T06:19:58.057Z,62.10
2018-04-19T06:22:26.241Z,61.50
2018-04-19T06:24:55.099Z,60.00
2018-04-19T06:27:23.661Z,60.00
2018-04-19T06:29:53.436Z,60.10
2018-04-19T06:32:22.898Z,59.30
2018-04-19T06:34:50.856Z,59.10
2018-04-19T06:37:19.884Z,58.70
2018-04-19T06:39:48.840Z,58.50
2018-04-19T06:42:17.678Z,57.30
2018-04-19T06:44:46.773Z,56.90
2018-04-19T06:47:14.917Z,56.90
2018-04-19T06:49:43.061Z,56.70
2018-04-19T06:52:11.197Z,54.60
2018-04-19T06:54:39.489Z,54.60
2018-04-19T06:57:07.532Z,53.60
2018-04-19T06:59:35.835Z,52.80
2018-04-19T07:02:04.077Z,52.60
2018-04-19T07:04:32.127Z,52.10
2018-04-19T07:07:00.370Z,52.10
2018-04-19T07:09:29.344Z,51.00
2018-04-19T07:11:57.586Z,51.00
2018-04-19T07:14:25.803Z,54.10
2018-04-19T07:16:54.647Z,51.20
2018-04-19T07:19:23.488Z,51.20
2018-04-19T07:21:51.787Z,51.30
2018-04-19T07:24:20.028Z,48.40
2018-04-19T07:26:48.271Z,49.00
2018-04-19T07:29:16.461Z,49.30
2018-04-19T07:31:44.759Z,49.60
2018-04-19T07:34:12.998Z,47.10
2018-04-19T07:36:40.817Z,45.40
2018-04-19T07:39:09.120Z,43.10
2018-04-19T07:41:37.333Z,44.80
2018-04-19T07:44:05.311Z,45.70
2018-04-19T07:46:33.424Z,48.20
2018-04-19T07:49:01.595Z,46.80
2018-04-19T07:51:30.745Z,44.80
2018-04-19T07:53:58.931Z,44.80
2018-04-19T07:56:27.099Z,44.80
2018-04-19T07:58:55.620Z,42.40
2018-04-19T08:01:23.860Z,39.90
2018-04-19T08:03:52.117Z,39.40
2018-04-19T08:06:20.123Z,41.50
2018-04-19T08:08:48.392Z,40.90
2018-04-19T08:11:16.608Z,39.30
2018-04-19T08:13:44.820Z,42.30
2018-04-19T08:16:13.665Z,42.40
2018-04-19T08:18:41.905Z,41.10
2018-04-19T08:21:10.156Z,38.40
2018-04-19T08:23:38.439Z,37.10
2018-04-19T08:26:06.613Z,37.40
2018-04-19T08:28:35.450Z,36.80
2018-04-19T08:31:04.541Z,35.10
2018-04-19T08:33:32.733Z,35.10
2018-04-19T08:36:00.976Z,34.00
2018-04-19T08:38:29.305Z,32.30
2018-04-19T08:40:57.417Z,33.20
2018-04-19T08:43:25.559Z,32.30
2018-04-19T08:45:53.797Z,32.90
2018-04-19T08:48:21.988Z,33.40
2018-04-19T08:50:49.984Z,32.40
2018-04-19T08:53:18.079Z,34.10
2018-04-19T08:55:46.377Z,30.70
2018-04-19T08:58:14.621Z,31.60
2018-04-19T09:00:43.527Z,30.40
2018-04-19T09:03:11.802Z,30.50
2018-04-19T09:05:39.935Z,30.70
2018-04-19T09:08:08.957Z,30.70
2018-04-19T09:10:37.146Z,30.70
2018-04-19T09:13:06.187Z,30.50
2018-04-19T09:15:34.477Z,29.80
2018-04-19T09:18:02.263Z,31.10
2018-04-19T09:20:31.015Z,29.90
2018-04-19T09:22:59.059Z,29.90
2018-04-19T09:25:27.250Z,29.20
2018-04-19T09:27:55.262Z,28.80
2018-04-19T09:30:23.535Z,29.30
2018-04-19T09:32:51.781Z,29.20
2018-04-19T09:35:20.224Z,28.70
2018-04-19T09:37:49.014Z,28.60
2018-04-19T09:40:17.229Z,28.50
2018-04-19T09:42:46.080Z,29.00
2018-04-19T09:45:14.370Z,28.90
2018-04-19T09:47:42.612Z,28.40
2018-04-19T09:50:11.642Z,27.60
2018-04-19T09:52:39.884Z,27.10
2018-04-19T09:55:08.061Z,27.80
2018-04-19T09:57:36.766Z,28.90
2018-04-19T10:00:05.787Z,27.90
2018-04-19T10:02:35.733Z,27.90
2018-04-19T10:05:04.828Z,28.40
2018-04-19T10:07:33.236Z,28.40
2018-04-19T10:10:01.290Z,28.00
2018-04-19T10:12:29.503Z,28.00
2018-04-19T10:14:57.800Z,28.80
2018-04-19T10:17:26.050Z,28.30
2018-04-19T10:19:55.071Z,27.80
2018-04-19T10:22:23.131Z,27.80
2018-04-19T10:24:51.163Z,28.60
2018-04-19T10:27:19.335Z,28.50
2018-04-19T10:29:48.351Z,28.50
2018-04-19T10:32:16.241Z,28.50
2018-04-19T10:34:44.527Z,28.40
2018-04-19T10:37:12.768Z,27.90
2018-04-19T10:39:41.346Z,28.20
2018-04-19T10:42:10.387Z,28.40
2018-04-19T10:44:38.442Z,28.40
2018-04-19T10:47:06.529Z,28.20
2018-04-19T10:49:34.666Z,28.50
2018-04-19T10:52:02.884Z,28.10
2018-04-19T10:54:30.935Z,28.50
2018-04-19T10:56:59.110Z,28.80
2018-04-19T10:59:28.133Z,29.00
2018-04-19T11:01:56.377Z,29.00
2018-04-19T11:04:24.595Z,28.50
2018-04-19T11:06:52.857Z,28.40
2018-04-19T11:09:20.805Z,29.00
2018-04-19T11:11:48.951Z,29.70
2018-04-19T11:14:17.191Z,28.30
2018-04-19T11:16:45.332Z,28.70
2018-04-19T11:19:13.477Z,28.60
2018-04-19T11:21:41.721Z,29.00
2018-04-19T11:24:10.670Z,29.10
2018-04-19T11:26:39.583Z,28.40
2018-04-19T11:29:07.768Z,28.40
2018-04-19T11:31:35.985Z,28.60
2018-04-19T11:34:03.986Z,28.60
2018-04-19T11:36:32.162Z,28.40
2018-04-19T11:39:00.399Z,29.10
2018-04-19T11:41:28.652Z,28.20
2018-04-19T11:43:57.236Z,28.10
2018-04-19T11:46:25.519Z,28.70
2018-04-19T11:48:53.770Z,27.70
2018-04-19T11:51:22.006Z,26.90
2018-04-19T11:53:51.033Z,27.50
2018-04-19T11:56:19.276Z,27.20
2018-04-19T11:58:47.518Z,27.40
2018-04-19T12:01:15.719Z,27.90
2018-04-19T12:03:44.005Z,28.40
2018-04-19T12:06:12.247Z,28.10
2018-04-19T12:08:40.398Z,28.00
2018-04-19T12:11:08.299Z,27.90
2018-04-19T12:13:36.639Z,28.50
2018-04-19T12:16:05.218Z,28.90
2018-04-19T12:18:33.441Z,29.00
2018-04-19T12:21:01.702Z,29.10
2018-04-19T12:23:30.737Z,30.30
2018-04-19T12:25:58.973Z,29.70
2018-04-19T12:28:27.161Z,29.20
2018-04-19T12:30:55.458Z,29.60
2018-04-19T12:33:23.467Z,28.60
2018-04-19T12:35:51.639Z,28.60
2018-04-19T12:38:20.736Z,28.40
2018-04-19T12:40:48.773Z,28.50
2018-04-19T12:43:17.016Z,28.70
2018-04-19T12:45:45.310Z,28.80
2018-04-19T12:48:13.948Z,29.10
2018-04-19T12:50:42.942Z,29.00
2018-04-19T12:53:11.089Z,29.00
2018-04-19T12:55:39.227Z,29.50
2018-04-19T12:58:07.500Z,29.20
2018-04-19T13:00:35.643Z,28.80
2018-04-19T13:03:03.593Z,28.90
2018-04-19T13:05:31.722Z,29.10
2018-04-19T13:07:59.880Z,29.20
2018-04-19T13:10:28.321Z,28.20
2018-04-19T13:12:57.372Z,28.30
2018-04-19T13:15:25.593Z,28.30
2018-04-19T13:17:53.788Z,27.80
2018-04-19T13:20:22.601Z,28.30
2018-04-19T13:22:51.265Z,27.60
2018-04-19T13:25:19.545Z,27.60
2018-04-19T13:27:47.593Z,27.70
2018-04-19T13:30:15.831Z,27.50
2018-04-19T13:32:44.037Z,27.00
2018-04-19T13:35:12.204Z,27.80
2018-04-19T13:37:40.124Z,28.20
2018-04-19T13:40:08.408Z,28.30
2018-04-19T13:42:36.659Z,27.90
2018-04-19T13:45:04.851Z,27.80
2018-04-19T13:47:32.843Z,28.00
2018-04-19T13:50:00.986Z,28.40
2018-04-19T13:52:29.227Z,28.00
2018-04-19T13:54:57.440Z,27.90
2018-04-19T13:57:25.715Z,27.10
2018-04-19T13:59:53.904Z,27.70
2018-04-19T14:02:22.201Z,27.10
2018-04-19T14:04:50.444Z,26.20
2018-04-19T14:07:18.683Z,26.70
2018-04-19T14:09:46.925Z,25.60
2018-04-19T14:12:15.092Z,26.00
2018-04-19T14:14:43.862Z,26.10
2018-04-19T14:17:11.808Z,26.10
2018-04-19T14:19:40.091Z,26.10
2018-04-19T14:22:08.037Z,24.60
2018-04-19T14:24:36.429Z,25.00
2018-04-19T14:27:04.631Z,24.20
2018-04-19T14:29:33.649Z,24.10
2018-04-19T14:32:01.586Z,24.10
2018-04-19T14:34:30.330Z,23.50
2018-04-19T14:36:58.564Z,23.80
2018-04-19T14:42:00.700Z,23.30
2018-04-19T14:44:29.667Z,23.80
2018-04-19T14:46:57.833Z,23.70
2018-04-19T14:49:25.802Z,23.50
2018-04-19T14:51:54.471Z,24.50
2018-04-19T14:54:22.757Z,24.30
2018-04-19T14:56:51.394Z,23.80
2018-04-19T14:59:19.570Z,24.50
2018-04-19T15:01:48.468Z,25.10
2018-04-19T15:04:16.710Z,25.10
2018-04-19T15:06:44.897Z,24.50
2018-04-19T15:09:13.144Z,24.40
2018-04-19T15:11:41.210Z,24.50
2018-04-19T15:14:09.425Z,24.60
2018-04-19T15:16:37.995Z,25.20
2018-04-19T15:19:06.560Z,25.60
2018-04-19T15:21:34.800Z,26.20
2018-04-19T15:24:02.950Z,26.70
2018-04-19T15:26:31.240Z,27.00
2018-04-19T15:28:59.875Z,27.60
2018-04-19T15:31:28.162Z,26.40
2018-04-19T15:33:56.410Z,26.90
2018-04-19T15:36:25.381Z,27.30
2018-04-19T15:38:53.684Z,27.20
2018-04-19T15:41:22.071Z,28.20
2018-04-19T15:43:50.164Z,28.00
2018-04-19T15:46:18.349Z,27.20
2018-04-19T15:48:46.407Z,27.70
2018-04-19T15:51:14.690Z,27.50
2018-04-19T15:53:42.942Z,27.40
2018-04-19T15:56:11.962Z,28.00
2018-04-19T15:58:40.220Z,27.90
2018-04-19T16:01:08.446Z,28.50
2018-04-19T16:03:36.689Z,28.40
2018-04-19T16:06:05.128Z,28.00
2018-04-19T16:08:33.371Z,27.60
2018-04-19T16:11:01.604Z,27.80
2018-04-19T16:13:29.863Z,28.50
2018-04-19T16:15:58.032Z,28.30
2018-04-19T16:18:26.734Z,28.50
2018-04-19T16:20:54.967Z,28.40
2018-04-19T16:23:23.218Z,28.30
2018-04-19T16:25:51.401Z,28.70
2018-04-19T16:28:19.671Z,28.00
2018-04-19T16:30:47.943Z,28.40
2018-04-19T16:33:16.199Z,28.80
2018-04-19T16:35:44.434Z,28.80
2018-04-19T16:38:12.617Z,29.40
2018-04-19T16:40:40.912Z,29.30
2018-04-19T16:43:09.157Z,28.50
2018-04-19T16:45:38.182Z,28.60
2018-04-19T16:48:06.423Z,28.50
2018-04-19T16:50:34.597Z,28.60
2018-04-19T16:53:03.516Z,29.00
2018-04-19T16:55:31.740Z,29.00
2018-04-19T16:57:59.983Z,28.80
2018-04-19T17:00:28.172Z,29.10
2018-04-19T17:02:56.467Z,29.40
2018-04-19T17:05:24.715Z,28.50
2018-04-19T17:07:53.618Z,29.40
2018-04-19T17:10:21.792Z,29.40
2018-04-19T17:12:49.978Z,29.60
2018-04-19T17:15:18.220Z,29.10
2018-04-19T17:17:46.438Z,29.30
2018-04-19T17:20:15.205Z,30.20
2018-04-19T17:22:43.390Z,30.20
2018-04-19T17:25:11.633Z,29.30
2018-04-19T17:27:39.877Z,29.70
2018-04-19T17:30:08.051Z,29.80
2018-04-19T17:32:36.898Z,30.10
2018-04-19T17:35:05.198Z,30.10
2018-04-19T17:37:33.435Z,29.80
2018-04-19T17:40:01.575Z,30.00
2018-04-19T17:42:29.688Z,30.60
2018-04-19T17:44:57.965Z,30.00
2018-04-19T17:47:25.972Z,30.10
2018-04-19T17:49:54.163Z,29.80
2018-04-19T17:52:23.205Z,30.30
2018-04-19T17:54:51.972Z,30.60
2018-04-19T17:57:20.016Z,30.60
2018-04-19T17:59:48.107Z,30.50
2018-04-19T18:02:17.151Z,30.70
2018-04-19T18:04:45.087Z,31.10
2018-04-19T18:07:13.326Z,31.10
2018-04-19T18:09:42.118Z,30.80
2018-04-19T18:12:10.399Z,30.80
2018-04-19T18:14:38.642Z,31.00
2018-04-19T18:17:06.887Z,31.50
2018-04-19T18:19:35.076Z,31.20
2018-04-19T18:22:03.370Z,31.50
2018-04-19T18:24:31.610Z,31.20
2018-04-19T18:26:59.614Z,31.50
2018-04-19T18:29:27.898Z,31.60
2018-04-19T18:31:56.082Z,31.60
2018-04-19T18:34:24.299Z,31.40
2018-04-19T18:36:53.197Z,32.20
2018-04-19T18:39:21.457Z,32.20
2018-04-19T18:41:49.462Z,32.10
2018-04-19T18:44:17.746Z,32.00
2018-04-19T18:46:45.890Z,32.10
2018-04-19T18:49:13.980Z,32.10
2018-04-19T18:51:42.223Z,32.60
2018-04-19T18:54:10.467Z,32.30
2018-04-19T18:56:39.378Z,32.60
2018-04-19T18:59:07.549Z,32.60
2018-04-19T19:01:35.897Z,33.10
2018-04-19T19:04:04.058Z,32.70
2018-04-19T19:06:32.321Z,33.30
2018-04-19T19:09:00.594Z,33.60
2018-04-19T19:11:28.686Z,32.70
2018-04-19T19:13:57.202Z,32.40
2018-04-19T19:16:25.093Z,32.40
2018-04-19T19:19:05.318Z,32.20
2018-04-19T19:21:33.529Z,32.00
2018-04-19T19:24:01.747Z,31.80
2018-04-19T19:26:29.822Z,32.50
2018-04-19T19:28:58.031Z,32.00
2018-04-19T19:31:26.877Z,33.60
2018-04-19T19:33:55.115Z,33.50
2018-04-19T19:36:23.958Z,34.60
2018-04-19T19:38:52.199Z,34.60
2018-04-19T19:41:20.542Z,34.30
2018-04-19T19:43:49.658Z,34.50
2018-04-19T19:46:17.960Z,34.50
2018-04-19T19:48:46.202Z,33.50
2018-04-19T19:51:14.384Z,33.40
2018-04-19T19:53:43.228Z,33.40
2018-04-19T19:56:11.530Z,33.30
2018-04-19T19:58:39.715Z,34.30
2018-04-19T20:01:08.987Z,34.40
2018-04-19T20:03:37.182Z,34.40
2018-04-19T20:06:05.475Z,34.00
2018-04-19T20:08:33.507Z,34.90
2018-04-19T20:11:01.762Z,34.80
2018-04-19T20:13:30.004Z,35.00
2018-04-19T20:15:58.236Z,34.60
2018-04-19T20:18:26.644Z,34.70
2018-04-19T20:20:55.363Z,35.50
2018-04-19T20:23:23.462Z,36.40
2018-04-19T20:25:51.604Z,35.80
2018-04-19T20:28:19.851Z,35.90
2018-04-19T20:30:48.041Z,37.00
2018-04-19T20:33:17.123Z,36.90
2018-04-19T20:35:45.321Z,36.90
2018-04-19T20:38:13.368Z,37.00
2018-04-19T20:40:41.415Z,38.10
2018-04-19T20:43:09.673Z,38.30
2018-04-19T20:45:37.741Z,38.70
2018-04-19T20:48:05.984Z,38.90
2018-04-19T20:50:34.152Z,38.90
2018-04-19T20:53:02.992Z,38.70
2018-04-19T20:55:32.213Z,39.10
2018-04-19T20:58:01.057Z,39.30
2018-04-19T21:00:29.359Z,39.20
2018-04-19T21:02:57.590Z,39.10
2018-04-19T21:05:25.845Z,38.50
2018-04-19T21:07:54.423Z,38.60
2018-04-19T21:10:22.721Z,38.60
2018-04-19T21:12:50.904Z,37.60
2018-04-19T21:15:19.225Z,38.50
2018-04-19T21:17:47.448Z,38.20
2018-04-19T21:20:15.559Z,38.30
2018-04-19T21:22:43.705Z,37.90
2018-04-19T21:25:11.743Z,38.10
2018-04-19T21:27:40.026Z,38.10
2018-04-19T21:30:08.273Z,38.00
2018-04-19T21:32:36.512Z,38.50
2018-04-19T21:35:04.751Z,38.30
2018-04-19T21:37:32.993Z,38.50
2018-04-19T21:40:01.237Z,39.00
2018-04-19T21:42:29.362Z,38.80
2018-04-19T21:44:57.453Z,39.10
2018-04-19T21:47:26.593Z,39.40
2018-04-19T21:49:54.555Z,39.40
2018-04-19T21:52:22.730Z,40.60
2018-04-19T21:54:51.090Z,40.90
2018-04-19T21:57:19.190Z,40.60
2018-04-19T21:59:47.783Z,39.70
2018-04-19T22:02:15.950Z,39.50
2018-04-19T22:04:44.202Z,39.30
2018-04-19T22:07:12.491Z,39.60
2018-04-19T22:09:40.654Z,39.50
2018-04-19T22:12:09.518Z,39.60
2018-04-19T22:14:38.005Z,39.80
2018-04-19T22:17:06.206Z,40.50
2018-04-19T22:19:34.253Z,39.70
2018-04-19T22:22:02.323Z,39.40
2018-04-19T22:24:30.380Z,39.70
2018-04-19T22:26:58.398Z,40.90
2018-04-19T22:29:26.368Z,41.30
2018-04-19T22:31:54.522Z,40.00
2018-04-19T22:34:22.522Z,39.80
2018-04-19T22:36:50.771Z,39.80
2018-04-19T22:39:18.982Z,40.20
2018-04-19T22:41:47.824Z,40.70
2018-04-19T22:44:16.912Z,40.50
2018-04-19T22:46:45.943Z,40.60
2018-04-19T22:49:14.183Z,40.40
2018-04-19T22:51:42.512Z,40.60
2018-04-19T22:54:11.011Z,41.90
2018-04-19T22:56:39.304Z,42.30
2018-04-19T22:59:07.546Z,42.60
2018-04-19T23:01:35.790Z,42.50
2018-04-19T23:04:03.842Z,42.40
2018-04-19T23:06:32.025Z,44.20
2018-04-19T23:09:00.321Z,44.00
2018-04-19T23:11:28.561Z,43.40
2018-04-19T23:13:56.770Z,42.60
2018-04-19T23:16:24.965Z,43.30
2018-04-19T23:18:53.878Z,42.10
2018-04-19T23:21:22.273Z,42.50
2018-04-19T23:23:50.144Z,42.80
2018-04-19T23:26:18.911Z,42.70
2018-04-19T23:28:47.242Z,43.40
2018-04-19T23:31:15.483Z,43.60
2018-04-19T23:33:43.723Z,42.80
2018-04-19T23:36:11.929Z,44.90
2018-04-19T23:38:40.147Z,45.50
2018-04-19T23:41:08.455Z,45.00
2018-04-19T23:43:36.497Z,46.00
2018-04-19T23:46:04.673Z,45.90
2018-04-19T23:48:33.513Z,43.60
2018-04-19T23:51:01.817Z,43.60
2018-04-19T23:53:29.975Z,43.70
2018-04-19T23:55:58.791Z,45.60
2018-04-19T23:58:26.886Z,45.60
